sensor_id;sensor_type;location;lat;lon;timestamp;temperature;humidity
14962;DHT22;56489;53.166;10.864;2022-12-29T00:01:28;7.40;99.90
14962;DHT22;56489;53.166;10.864;2022-12-29T00:03:55;7.50;99.90
14962;DHT22;56489;53.166;10.864;2022-12-29T00:06:21;7.50;99.90
14962;DHT22;56489;53.166;10.864;2022-12-29T00:08:48;7.50;99.90
14962;DHT22;56489;53.166;10.864;2022-12-29T00:11:16;7.50;99.90
14962;DHT22;56489;53.166;10.864;2022-12-29T00:13:43;7.50;99.90
14962;DHT22;56489;53.166;10.864;2022-12-29T00:16:29;7.50;99.90
14962;DHT22;56489;53.166;10.864;2022-12-29T00:18:57;7.60;99.90
14962;DHT22;56489;53.166;10.864;2022-12-29T00:21:24;7.60;99.90
14962;DHT22;56489;53.166;10.864;2022-12-29T00:24:17;7.60;99.90
14962;DHT22;56489;53.166;10.864;2022-12-29T00:29:49;7.70;99.90
14962;DHT22;56489;53.166;10.864;2022-12-29T00:32:34;7.60;99.90
14962;DHT22;56489;53.166;10.864;2022-12-29T00:36:02;7.60;99.90
14962;DHT22;56489;53.166;10.864;2022-12-29T00:38:09;7.70;99.90
14962;DHT22;56489;53.166;10.864;2022-12-29T00:40:55;7.70;99.90
14962;DHT22;56489;53.166;10.864;2022-12-29T00:43:40;7.70;99.90
14962;DHT22;56489;53.166;10.864;2022-12-29T00:46:26;7.70;99.90
14962;DHT22;56489;53.166;10.864;2022-12-29T00:48:53;7.70;99.90
14962;DHT22;56489;53.166;10.864;2022-12-29T00:51:39;7.70;99.90
14962;DHT22;56489;53.166;10.864;2022-12-29T00:54:06;7.70;99.90
14962;DHT22;56489;53.166;10.864;2022-12-29T00:56:33;7.70;99.90
14962;DHT22;56489;53.166;10.864;2022-12-29T00:59:07;7.70;99.90
14962;DHT22;56489;53.166;10.864;2022-12-29T01:01:34;7.60;99.90
14962;DHT22;56489;53.166;10.864;2022-12-29T01:04:02;7.50;99.90
14962;DHT22;56489;53.166;10.864;2022-12-29T01:06:30;7.60;99.90
14962;DHT22;56489;53.166;10.864;2022-12-29T01:08:57;7.50;99.90
14962;DHT22;56489;53.166;10.864;2022-12-29T01:11:42;7.50;99.90
14962;DHT22;56489;53.166;10.864;2022-12-29T01:14:09;7.50;99.90
14962;DHT22;56489;53.166;10.864;2022-12-29T01:16:36;7.50;99.90
14962;DHT22;56489;53.166;10.864;2022-12-29T01:19:03;7.50;99.90
14962;DHT22;56489;53.166;10.864;2022-12-29T01:21:30;7.60;99.90
14962;DHT22;56489;53.166;10.864;2022-12-29T01:23:57;7.60;99.90
14962;DHT22;56489;53.166;10.864;2022-12-29T01:26:23;7.70;99.90
14962;DHT22;56489;53.166;10.864;2022-12-29T01:28:50;7.70;99.90
14962;DHT22;56489;53.166;10.864;2022-12-29T01:31:17;7.70;99.90
14962;DHT22;56489;53.166;10.864;2022-12-29T01:33:44;7.70;99.90
14962;DHT22;56489;53.166;10.864;2022-12-29T01:36:11;7.80;99.90
14962;DHT22;56489;53.166;10.864;2022-12-29T01:38:39;7.80;99.90
14962;DHT22;56489;53.166;10.864;2022-12-29T01:41:06;7.90;99.90
14962;DHT22;56489;53.166;10.864;2022-12-29T01:43:44;7.90;99.90
14962;DHT22;56489;53.166;10.864;2022-12-29T01:46:22;7.90;99.90
14962;DHT22;56489;53.166;10.864;2022-12-29T01:48:52;8.00;99.90
14962;DHT22;56489;53.166;10.864;2022-12-29T01:51:20;8.00;99.90
14962;DHT22;56489;53.166;10.864;2022-12-29T01:53:48;8.10;99.90
14962;DHT22;56489;53.166;10.864;2022-12-29T01:56:16;8.10;99.90
14962;DHT22;56489;53.166;10.864;2022-12-29T01:58:44;8.10;99.90
14962;DHT22;56489;53.166;10.864;2022-12-29T02:01:12;8.10;99.90
14962;DHT22;56489;53.166;10.864;2022-12-29T02:03:40;8.20;99.90
14962;DHT22;56489;53.166;10.864;2022-12-29T02:06:08;8.20;99.90
14962;DHT22;56489;53.166;10.864;2022-12-29T02:08:37;8.20;99.90
14962;DHT22;56489;53.166;10.864;2022-12-29T02:11:04;8.20;99.90
14962;DHT22;56489;53.166;10.864;2022-12-29T02:13:31;8.20;99.90
14962;DHT22;56489;53.166;10.864;2022-12-29T02:16:05;8.30;99.90
14962;DHT22;56489;53.166;10.864;2022-12-29T02:18:46;8.30;99.90
14962;DHT22;56489;53.166;10.864;2022-12-29T02:34:16;8.30;99.90
14962;DHT22;56489;53.166;10.864;2022-12-29T02:37:00;8.30;99.90
14962;DHT22;56489;53.166;10.864;2022-12-29T02:42:03;8.30;99.90
14962;DHT22;56489;53.166;10.864;2022-12-29T02:47:09;8.30;99.90
14962;DHT22;56489;53.166;10.864;2022-12-29T02:52:10;8.30;99.90
14962;DHT22;56489;53.166;10.864;2022-12-29T02:54:40;8.30;99.90
14962;DHT22;56489;53.166;10.864;2022-12-29T02:59:37;8.30;99.90
14962;DHT22;56489;53.166;10.864;2022-12-29T03:02:12;8.40;99.90
14962;DHT22;56489;53.166;10.864;2022-12-29T03:07:31;8.40;99.90
14962;DHT22;56489;53.166;10.864;2022-12-29T03:10:10;8.40;99.90
14962;DHT22;56489;53.166;10.864;2022-12-29T03:12:53;8.40;99.90
14962;DHT22;56489;53.166;10.864;2022-12-29T03:15:45;8.50;99.90
14962;DHT22;56489;53.166;10.864;2022-12-29T03:18:37;8.50;99.90
14962;DHT22;56489;53.166;10.864;2022-12-29T03:21:17;8.50;99.90
14962;DHT22;56489;53.166;10.864;2022-12-29T03:23:46;8.50;99.90
14962;DHT22;56489;53.166;10.864;2022-12-29T03:26:15;8.50;99.90
14962;DHT22;56489;53.166;10.864;2022-12-29T03:28:52;8.50;99.90
14962;DHT22;56489;53.166;10.864;2022-12-29T03:31:20;8.50;99.90
14962;DHT22;56489;53.166;10.864;2022-12-29T03:33:49;8.50;99.90
14962;DHT22;56489;53.166;10.864;2022-12-29T03:36:19;8.50;99.90
14962;DHT22;56489;53.166;10.864;2022-12-29T03:38:49;8.50;99.90
14962;DHT22;56489;53.166;10.864;2022-12-29T03:41:20;8.60;99.90
14962;DHT22;56489;53.166;10.864;2022-12-29T03:43:48;8.50;99.90
14962;DHT22;56489;53.166;10.864;2022-12-29T03:46:15;8.50;99.90
14962;DHT22;56489;53.166;10.864;2022-12-29T03:48:43;8.50;99.90
14962;DHT22;56489;53.166;10.864;2022-12-29T03:51:10;8.50;99.90
14962;DHT22;56489;53.166;10.864;2022-12-29T03:53:37;8.50;99.90
14962;DHT22;56489;53.166;10.864;2022-12-29T03:56:04;8.50;99.90
14962;DHT22;56489;53.166;10.864;2022-12-29T03:58:31;8.50;99.90
14962;DHT22;56489;53.166;10.864;2022-12-29T04:00:57;8.50;99.90
14962;DHT22;56489;53.166;10.864;2022-12-29T04:03:24;8.60;99.90
14962;DHT22;56489;53.166;10.864;2022-12-29T04:05:51;8.60;99.90
14962;DHT22;56489;53.166;10.864;2022-12-29T04:08:18;8.60;99.90
14962;DHT22;56489;53.166;10.864;2022-12-29T04:10:45;8.60;99.90
14962;DHT22;56489;53.166;10.864;2022-12-29T04:13:11;8.60;99.90
14962;DHT22;56489;53.166;10.864;2022-12-29T04:15:38;8.60;99.90
14962;DHT22;56489;53.166;10.864;2022-12-29T04:18:05;8.60;99.90
14962;DHT22;56489;53.166;10.864;2022-12-29T04:20:32;8.60;99.90
14962;DHT22;56489;53.166;10.864;2022-12-29T04:23:18;8.60;99.90
14962;DHT22;56489;53.166;10.864;2022-12-29T04:25:45;8.60;99.90
14962;DHT22;56489;53.166;10.864;2022-12-29T04:28:13;8.60;99.90
14962;DHT22;56489;53.166;10.864;2022-12-29T04:30:41;8.70;99.90
14962;DHT22;56489;53.166;10.864;2022-12-29T04:33:08;8.70;99.90
14962;DHT22;56489;53.166;10.864;2022-12-29T04:35:34;8.70;99.90
14962;DHT22;56489;53.166;10.864;2022-12-29T04:38:01;8.70;99.90
14962;DHT22;56489;53.166;10.864;2022-12-29T04:40:28;8.60;99.90
14962;DHT22;56489;53.166;10.864;2022-12-29T04:42:55;8.60;99.90
14962;DHT22;56489;53.166;10.864;2022-12-29T04:45:22;8.60;99.90
14962;DHT22;56489;53.166;10.864;2022-12-29T04:47:49;8.50;99.90
14962;DHT22;56489;53.166;10.864;2022-12-29T04:50:16;8.50;99.90
14962;DHT22;56489;53.166;10.864;2022-12-29T04:52:43;8.40;99.90
14962;DHT22;56489;53.166;10.864;2022-12-29T04:55:10;8.40;99.90
14962;DHT22;56489;53.166;10.864;2022-12-29T04:57:36;8.50;99.90
14962;DHT22;56489;53.166;10.864;2022-12-29T05:00:03;8.50;99.90
14962;DHT22;56489;53.166;10.864;2022-12-29T05:02:31;8.40;99.90
14962;DHT22;56489;53.166;10.864;2022-12-29T05:04:58;8.40;99.90
14962;DHT22;56489;53.166;10.864;2022-12-29T05:07:24;8.40;99.90
14962;DHT22;56489;53.166;10.864;2022-12-29T05:09:51;8.40;99.90
14962;DHT22;56489;53.166;10.864;2022-12-29T05:12:18;8.40;99.90
14962;DHT22;56489;53.166;10.864;2022-12-29T05:14:44;8.40;99.90
14962;DHT22;56489;53.166;10.864;2022-12-29T05:17:11;8.40;99.90
14962;DHT22;56489;53.166;10.864;2022-12-29T05:19:38;8.50;99.90
14962;DHT22;56489;53.166;10.864;2022-12-29T05:22:05;8.50;99.90
14962;DHT22;56489;53.166;10.864;2022-12-29T05:24:32;8.50;99.90
14962;DHT22;56489;53.166;10.864;2022-12-29T05:26:59;8.50;99.90
14962;DHT22;56489;53.166;10.864;2022-12-29T05:29:26;8.50;99.90
14962;DHT22;56489;53.166;10.864;2022-12-29T05:31:53;8.50;99.90
14962;DHT22;56489;53.166;10.864;2022-12-29T05:34:20;8.50;99.90
14962;DHT22;56489;53.166;10.864;2022-12-29T05:36:46;8.50;99.90
14962;DHT22;56489;53.166;10.864;2022-12-29T05:39:13;8.50;99.90
14962;DHT22;56489;53.166;10.864;2022-12-29T05:41:40;8.50;99.90
14962;DHT22;56489;53.166;10.864;2022-12-29T05:44:07;8.50;99.90
14962;DHT22;56489;53.166;10.864;2022-12-29T05:46:34;8.60;99.90
14962;DHT22;56489;53.166;10.864;2022-12-29T05:49:00;8.60;99.90
14962;DHT22;56489;53.166;10.864;2022-12-29T05:51:27;8.60;99.90
14962;DHT22;56489;53.166;10.864;2022-12-29T05:53:54;8.70;99.90
14962;DHT22;56489;53.166;10.864;2022-12-29T05:56:21;8.70;99.90
14962;DHT22;56489;53.166;10.864;2022-12-29T05:58:47;8.70;99.90
14962;DHT22;56489;53.166;10.864;2022-12-29T06:01:14;8.80;99.90
14962;DHT22;56489;53.166;10.864;2022-12-29T06:03:42;8.80;99.90
14962;DHT22;56489;53.166;10.864;2022-12-29T06:06:14;8.80;99.90
14962;DHT22;56489;53.166;10.864;2022-12-29T06:08:41;8.80;99.90
14962;DHT22;56489;53.166;10.864;2022-12-29T06:11:07;8.90;99.90
14962;DHT22;56489;53.166;10.864;2022-12-29T06:13:34;8.90;99.90
14962;DHT22;56489;53.166;10.864;2022-12-29T06:16:00;8.90;99.90
14962;DHT22;56489;53.166;10.864;2022-12-29T06:18:27;8.90;99.90
14962;DHT22;56489;53.166;10.864;2022-12-29T06:20:59;9.00;99.90
14962;DHT22;56489;53.166;10.864;2022-12-29T06:23:25;9.00;99.90
14962;DHT22;56489;53.166;10.864;2022-12-29T06:25:52;9.00;99.90
14962;DHT22;56489;53.166;10.864;2022-12-29T06:28:19;9.00;99.90
14962;DHT22;56489;53.166;10.864;2022-12-29T06:30:46;9.10;99.90
14962;DHT22;56489;53.166;10.864;2022-12-29T06:33:13;9.10;99.90
14962;DHT22;56489;53.166;10.864;2022-12-29T06:35:41;9.10;99.90
14962;DHT22;56489;53.166;10.864;2022-12-29T06:38:08;9.10;99.90
14962;DHT22;56489;53.166;10.864;2022-12-29T06:40:35;9.20;99.90
14962;DHT22;56489;53.166;10.864;2022-12-29T06:43:02;9.20;99.90
14962;DHT22;56489;53.166;10.864;2022-12-29T06:45:29;9.20;99.90
14962;DHT22;56489;53.166;10.864;2022-12-29T06:47:56;9.30;99.90
14962;DHT22;56489;53.166;10.864;2022-12-29T06:50:22;9.20;99.90
14962;DHT22;56489;53.166;10.864;2022-12-29T06:52:49;9.20;99.90
14962;DHT22;56489;53.166;10.864;2022-12-29T06:55:15;9.20;99.90
14962;DHT22;56489;53.166;10.864;2022-12-29T06:57:43;9.10;99.90
14962;DHT22;56489;53.166;10.864;2022-12-29T07:00:09;9.10;99.90
14962;DHT22;56489;53.166;10.864;2022-12-29T07:02:36;9.20;99.90
14962;DHT22;56489;53.166;10.864;2022-12-29T07:05:03;9.20;99.90
14962;DHT22;56489;53.166;10.864;2022-12-29T07:07:29;9.30;99.90
14962;DHT22;56489;53.166;10.864;2022-12-29T07:09:56;9.30;99.90
14962;DHT22;56489;53.166;10.864;2022-12-29T07:12:23;9.30;99.90
14962;DHT22;56489;53.166;10.864;2022-12-29T07:14:49;9.40;99.90
14962;DHT22;56489;53.166;10.864;2022-12-29T07:17:16;9.40;99.90
14962;DHT22;56489;53.166;10.864;2022-12-29T07:19:43;9.40;99.90
14962;DHT22;56489;53.166;10.864;2022-12-29T07:22:10;9.40;99.90
14962;DHT22;56489;53.166;10.864;2022-12-29T07:24:37;9.40;99.90
14962;DHT22;56489;53.166;10.864;2022-12-29T07:27:04;9.00;99.90
14962;DHT22;56489;53.166;10.864;2022-12-29T07:29:31;9.40;99.90
14962;DHT22;56489;53.166;10.864;2022-12-29T07:31:58;9.50;99.90
14962;DHT22;56489;53.166;10.864;2022-12-29T07:34:25;9.50;99.90
14962;DHT22;56489;53.166;10.864;2022-12-29T07:36:51;9.40;99.90
14962;DHT22;56489;53.166;10.864;2022-12-29T07:39:18;9.40;99.90
14962;DHT22;56489;53.166;10.864;2022-12-29T07:41:45;9.40;99.90
14962;DHT22;56489;53.166;10.864;2022-12-29T07:44:12;9.30;99.90
14962;DHT22;56489;53.166;10.864;2022-12-29T07:46:38;9.30;99.90
14962;DHT22;56489;53.166;10.864;2022-12-29T07:49:22;9.30;99.90
14962;DHT22;56489;53.166;10.864;2022-12-29T07:51:49;9.20;99.90
14962;DHT22;56489;53.166;10.864;2022-12-29T07:54:19;9.20;99.90
14962;DHT22;56489;53.166;10.864;2022-12-29T07:56:46;9.20;99.90
14962;DHT22;56489;53.166;10.864;2022-12-29T07:59:13;9.20;99.90
14962;DHT22;56489;53.166;10.864;2022-12-29T08:01:40;9.20;99.90
14962;DHT22;56489;53.166;10.864;2022-12-29T08:04:07;9.10;99.90
14962;DHT22;56489;53.166;10.864;2022-12-29T08:06:34;9.10;99.90
14962;DHT22;56489;53.166;10.864;2022-12-29T08:09:01;9.10;99.90
14962;DHT22;56489;53.166;10.864;2022-12-29T08:11:38;9.00;99.90
14962;DHT22;56489;53.166;10.864;2022-12-29T08:14:07;9.00;99.90
14962;DHT22;56489;53.166;10.864;2022-12-29T08:16:33;9.00;99.90
14962;DHT22;56489;53.166;10.864;2022-12-29T08:19:00;9.00;99.90
14962;DHT22;56489;53.166;10.864;2022-12-29T08:21:27;8.90;99.90
14962;DHT22;56489;53.166;10.864;2022-12-29T08:23:54;8.90;99.90
14962;DHT22;56489;53.166;10.864;2022-12-29T08:26:21;9.00;99.90
14962;DHT22;56489;53.166;10.864;2022-12-29T08:28:51;8.90;99.90
14962;DHT22;56489;53.166;10.864;2022-12-29T08:31:18;8.90;99.90
14962;DHT22;56489;53.166;10.864;2022-12-29T08:33:45;8.90;99.90
14962;DHT22;56489;53.166;10.864;2022-12-29T08:36:12;8.90;99.90
14962;DHT22;56489;53.166;10.864;2022-12-29T08:38:38;8.80;99.90
14962;DHT22;56489;53.166;10.864;2022-12-29T08:41:05;8.80;99.90
14962;DHT22;56489;53.166;10.864;2022-12-29T08:43:31;8.80;99.90
14962;DHT22;56489;53.166;10.864;2022-12-29T08:45:58;8.80;99.90
14962;DHT22;56489;53.166;10.864;2022-12-29T08:48:25;8.80;99.90
14962;DHT22;56489;53.166;10.864;2022-12-29T08:50:52;8.80;99.90
14962;DHT22;56489;53.166;10.864;2022-12-29T08:53:19;8.80;99.90
14962;DHT22;56489;53.166;10.864;2022-12-29T08:55:46;8.90;99.90
14962;DHT22;56489;53.166;10.864;2022-12-29T08:58:13;8.80;99.90
14962;DHT22;56489;53.166;10.864;2022-12-29T09:00:41;8.80;99.90
14962;DHT22;56489;53.166;10.864;2022-12-29T09:03:08;8.80;99.90
14962;DHT22;56489;53.166;10.864;2022-12-29T09:05:35;8.70;99.90
14962;DHT22;56489;53.166;10.864;2022-12-29T09:08:02;8.70;99.90
14962;DHT22;56489;53.166;10.864;2022-12-29T09:10:29;8.70;99.90
14962;DHT22;56489;53.166;10.864;2022-12-29T09:12:56;8.60;99.90
14962;DHT22;56489;53.166;10.864;2022-12-29T09:15:22;8.60;99.90
14962;DHT22;56489;53.166;10.864;2022-12-29T09:17:49;8.60;99.90
14962;DHT22;56489;53.166;10.864;2022-12-29T09:20:18;8.60;99.90
14962;DHT22;56489;53.166;10.864;2022-12-29T09:22:45;8.60;99.90
14962;DHT22;56489;53.166;10.864;2022-12-29T09:25:13;8.70;99.90
14962;DHT22;56489;53.166;10.864;2022-12-29T09:27:40;8.80;99.90
14962;DHT22;56489;53.166;10.864;2022-12-29T09:30:08;8.80;99.90
14962;DHT22;56489;53.166;10.864;2022-12-29T09:32:35;8.90;99.90
14962;DHT22;56489;53.166;10.864;2022-12-29T09:35:10;8.90;99.90
14962;DHT22;56489;53.166;10.864;2022-12-29T09:37:37;8.90;99.90
14962;DHT22;56489;53.166;10.864;2022-12-29T09:40:03;8.90;99.90
14962;DHT22;56489;53.166;10.864;2022-12-29T09:42:35;9.00;99.90
14962;DHT22;56489;53.166;10.864;2022-12-29T09:45:24;9.00;99.90
14962;DHT22;56489;53.166;10.864;2022-12-29T09:47:54;9.00;99.90
14962;DHT22;56489;53.166;10.864;2022-12-29T09:50:28;9.00;99.90
14962;DHT22;56489;53.166;10.864;2022-12-29T09:53:11;9.10;99.90
14962;DHT22;56489;53.166;10.864;2022-12-29T09:55:42;9.20;99.90
14962;DHT22;56489;53.166;10.864;2022-12-29T10:00:48;9.20;99.90
14962;DHT22;56489;53.166;10.864;2022-12-29T10:03:21;9.10;99.90
14962;DHT22;56489;53.166;10.864;2022-12-29T10:06:11;8.80;99.90
14962;DHT22;56489;53.166;10.864;2022-12-29T10:16:35;9.20;99.90
14962;DHT22;56489;53.166;10.864;2022-12-29T10:19:21;9.20;99.90
14962;DHT22;56489;53.166;10.864;2022-12-29T10:22:09;9.20;99.90
14962;DHT22;56489;53.166;10.864;2022-12-29T10:24:41;9.30;99.90
14962;DHT22;56489;53.166;10.864;2022-12-29T10:27:11;9.00;99.90
14962;DHT22;56489;53.166;10.864;2022-12-29T10:29:43;9.30;99.90
14962;DHT22;56489;53.166;10.864;2022-12-29T10:32:17;9.40;99.90
14962;DHT22;56489;53.166;10.864;2022-12-29T10:34:48;9.40;99.90
14962;DHT22;56489;53.166;10.864;2022-12-29T10:37:29;9.40;99.90
14962;DHT22;56489;53.166;10.864;2022-12-29T10:39:59;9.40;99.90
14962;DHT22;56489;53.166;10.864;2022-12-29T10:42:31;9.40;99.90
14962;DHT22;56489;53.166;10.864;2022-12-29T10:44:59;9.40;99.90
14962;DHT22;56489;53.166;10.864;2022-12-29T10:47:27;9.50;99.90
14962;DHT22;56489;53.166;10.864;2022-12-29T10:49:56;9.50;99.90
14962;DHT22;56489;53.166;10.864;2022-12-29T10:52:24;9.50;99.90
14962;DHT22;56489;53.166;10.864;2022-12-29T10:59:47;9.60;99.90
14962;DHT22;56489;53.166;10.864;2022-12-29T11:02:19;9.60;99.90
14962;DHT22;56489;53.166;10.864;2022-12-29T11:04:55;9.70;99.90
14962;DHT22;56489;53.166;10.864;2022-12-29T11:07:24;9.70;99.90
14962;DHT22;56489;53.166;10.864;2022-12-29T11:09:53;9.70;99.90
14962;DHT22;56489;53.166;10.864;2022-12-29T11:12:30;9.70;99.90
14962;DHT22;56489;53.166;10.864;2022-12-29T11:17:53;9.70;99.90
14962;DHT22;56489;53.166;10.864;2022-12-29T11:20:27;9.80;99.90
14962;DHT22;56489;53.166;10.864;2022-12-29T11:22:54;9.80;99.90
14962;DHT22;56489;53.166;10.864;2022-12-29T11:25:21;9.90;99.90
14962;DHT22;56489;53.166;10.864;2022-12-29T11:28:01;9.90;99.90
14962;DHT22;56489;53.166;10.864;2022-12-29T11:30:30;10.00;99.90
14962;DHT22;56489;53.166;10.864;2022-12-29T11:32:56;10.10;99.90
14962;DHT22;56489;53.166;10.864;2022-12-29T11:37:57;10.10;99.90
14962;DHT22;56489;53.166;10.864;2022-12-29T11:40:25;10.10;99.90
14962;DHT22;56489;53.166;10.864;2022-12-29T11:42:52;10.00;99.90
14962;DHT22;56489;53.166;10.864;2022-12-29T11:47:47;10.00;99.90
14962;DHT22;56489;53.166;10.864;2022-12-29T11:50:19;10.10;99.90
14962;DHT22;56489;53.166;10.864;2022-12-29T11:52:46;10.10;99.90
14962;DHT22;56489;53.166;10.864;2022-12-29T11:55:21;10.20;99.90
14962;DHT22;56489;53.166;10.864;2022-12-29T11:57:50;10.20;99.90
14962;DHT22;56489;53.166;10.864;2022-12-29T12:00:20;10.20;99.90
14962;DHT22;56489;53.166;10.864;2022-12-29T12:02:57;10.30;99.90
14962;DHT22;56489;53.166;10.864;2022-12-29T12:05:39;10.30;99.90
14962;DHT22;56489;53.166;10.864;2022-12-29T12:10:55;10.50;99.90
14962;DHT22;56489;53.166;10.864;2022-12-29T12:15:59;10.70;99.90
14962;DHT22;56489;53.166;10.864;2022-12-29T12:21:00;10.70;99.90
14962;DHT22;56489;53.166;10.864;2022-12-29T12:25:59;10.80;99.90
14962;DHT22;56489;53.166;10.864;2022-12-29T12:28:32;10.80;99.90
14962;DHT22;56489;53.166;10.864;2022-12-29T12:31:02;10.80;99.90
14962;DHT22;56489;53.166;10.864;2022-12-29T12:33:34;10.90;99.90
14962;DHT22;56489;53.166;10.864;2022-12-29T12:41:26;11.00;99.90
14962;DHT22;56489;53.166;10.864;2022-12-29T12:49:19;11.00;99.90
14962;DHT22;56489;53.166;10.864;2022-12-29T12:52:49;11.00;99.90
14962;DHT22;56489;53.166;10.864;2022-12-29T12:55:02;10.90;99.90
14962;DHT22;56489;53.166;10.864;2022-12-29T12:57:46;11.00;99.90
14962;DHT22;56489;53.166;10.864;2022-12-29T13:00:17;10.90;99.90
14962;DHT22;56489;53.166;10.864;2022-12-29T13:02:55;10.90;99.90
14962;DHT22;56489;53.166;10.864;2022-12-29T13:08:20;10.80;99.90
14962;DHT22;56489;53.166;10.864;2022-12-29T13:23:26;10.80;99.90
14962;DHT22;56489;53.166;10.864;2022-12-29T13:28:56;10.70;99.90
14962;DHT22;56489;53.166;10.864;2022-12-29T13:31:33;10.70;99.90
14962;DHT22;56489;53.166;10.864;2022-12-29T13:34:13;10.70;99.90
14962;DHT22;56489;53.166;10.864;2022-12-29T13:36:46;10.70;99.90
14962;DHT22;56489;53.166;10.864;2022-12-29T13:39:28;10.70;99.90
14962;DHT22;56489;53.166;10.864;2022-12-29T13:41:58;10.70;99.90
14962;DHT22;56489;53.166;10.864;2022-12-29T13:44:30;10.60;99.90
14962;DHT22;56489;53.166;10.864;2022-12-29T13:47:05;10.60;99.90
14962;DHT22;56489;53.166;10.864;2022-12-29T13:49:33;10.60;99.90
14962;DHT22;56489;53.166;10.864;2022-12-29T13:55:07;10.50;99.90
14962;DHT22;56489;53.166;10.864;2022-12-29T13:57:49;10.50;99.90
14962;DHT22;56489;53.166;10.864;2022-12-29T14:00:19;10.50;99.90
14962;DHT22;56489;53.166;10.864;2022-12-29T14:07:46;10.50;99.90
14962;DHT22;56489;53.166;10.864;2022-12-29T14:10:26;10.60;99.90
14962;DHT22;56489;53.166;10.864;2022-12-29T14:13:05;10.60;99.90
14962;DHT22;56489;53.166;10.864;2022-12-29T14:15:32;10.60;99.90
14962;DHT22;56489;53.166;10.864;2022-12-29T14:18:02;10.60;99.90
14962;DHT22;56489;53.166;10.864;2022-12-29T14:20:28;10.60;99.90
14962;DHT22;56489;53.166;10.864;2022-12-29T14:23:00;10.60;99.90
14962;DHT22;56489;53.166;10.864;2022-12-29T14:28:19;10.60;99.90
14962;DHT22;56489;53.166;10.864;2022-12-29T14:30:50;10.60;99.90
14962;DHT22;56489;53.166;10.864;2022-12-29T14:33:17;10.50;99.90
14962;DHT22;56489;53.166;10.864;2022-12-29T14:35:44;10.50;99.90
14962;DHT22;56489;53.166;10.864;2022-12-29T14:38:17;10.50;99.90
14962;DHT22;56489;53.166;10.864;2022-12-29T14:40:44;10.50;99.90
14962;DHT22;56489;53.166;10.864;2022-12-29T14:43:12;10.50;99.90
14962;DHT22;56489;53.166;10.864;2022-12-29T14:45:43;10.50;99.90
14962;DHT22;56489;53.166;10.864;2022-12-29T14:48:22;10.50;99.90
14962;DHT22;56489;53.166;10.864;2022-12-29T14:50:55;10.50;99.90
14962;DHT22;56489;53.166;10.864;2022-12-29T14:53:40;10.50;99.90
14962;DHT22;56489;53.166;10.864;2022-12-29T14:56:09;10.50;99.90
14962;DHT22;56489;53.166;10.864;2022-12-29T14:59:09;10.50;99.90
14962;DHT22;56489;53.166;10.864;2022-12-29T15:04:16;10.40;99.90
14962;DHT22;56489;53.166;10.864;2022-12-29T15:06:44;10.40;99.90
14962;DHT22;56489;53.166;10.864;2022-12-29T15:09:15;10.40;99.90
14962;DHT22;56489;53.166;10.864;2022-12-29T15:14:51;10.40;99.90
14962;DHT22;56489;53.166;10.864;2022-12-29T15:17:23;10.40;99.90
14962;DHT22;56489;53.166;10.864;2022-12-29T15:19:50;10.40;99.90
14962;DHT22;56489;53.166;10.864;2022-12-29T15:22:17;10.40;99.90
14962;DHT22;56489;53.166;10.864;2022-12-29T15:24:44;10.40;99.90
14962;DHT22;56489;53.166;10.864;2022-12-29T15:27:15;10.40;99.90
14962;DHT22;56489;53.166;10.864;2022-12-29T15:29:43;10.40;99.90
14962;DHT22;56489;53.166;10.864;2022-12-29T15:32:18;10.30;99.90
14962;DHT22;56489;53.166;10.864;2022-12-29T15:34:46;10.30;99.90
14962;DHT22;56489;53.166;10.864;2022-12-29T15:37:17;10.30;99.90
14962;DHT22;56489;53.166;10.864;2022-12-29T15:39:44;10.30;99.90
14962;DHT22;56489;53.166;10.864;2022-12-29T15:44:56;10.20;99.90
14962;DHT22;56489;53.166;10.864;2022-12-29T15:47:35;10.10;99.90
14962;DHT22;56489;53.166;10.864;2022-12-29T15:50:03;10.00;99.90
14962;DHT22;56489;53.166;10.864;2022-12-29T15:52:31;9.70;99.90
14962;DHT22;56489;53.166;10.864;2022-12-29T15:54:58;9.50;99.90
14962;DHT22;56489;53.166;10.864;2022-12-29T15:57:30;9.20;99.90
14962;DHT22;56489;53.166;10.864;2022-12-29T15:59:59;9.10;99.90
14962;DHT22;56489;53.166;10.864;2022-12-29T16:02:26;8.90;99.90
14962;DHT22;56489;53.166;10.864;2022-12-29T16:04:54;8.80;99.90
14962;DHT22;56489;53.166;10.864;2022-12-29T16:07:40;8.70;99.90
14962;DHT22;56489;53.166;10.864;2022-12-29T16:10:30;8.60;99.90
14962;DHT22;56489;53.166;10.864;2022-12-29T16:13:05;8.50;99.90
14962;DHT22;56489;53.166;10.864;2022-12-29T16:15:31;8.50;99.90
14962;DHT22;56489;53.166;10.864;2022-12-29T16:17:59;8.40;99.90
14962;DHT22;56489;53.166;10.864;2022-12-29T16:20:31;8.30;99.90
14962;DHT22;56489;53.166;10.864;2022-12-29T16:23:01;8.20;99.90
14962;DHT22;56489;53.166;10.864;2022-12-29T16:27:54;8.00;99.90
14962;DHT22;56489;53.166;10.864;2022-12-29T16:30:22;7.90;99.90
14962;DHT22;56489;53.166;10.864;2022-12-29T16:32:59;7.90;99.90
14962;DHT22;56489;53.166;10.864;2022-12-29T16:35:28;7.90;99.90
14962;DHT22;56489;53.166;10.864;2022-12-29T16:38:15;7.80;99.90
14962;DHT22;56489;53.166;10.864;2022-12-29T16:40:49;7.80;99.90
14962;DHT22;56489;53.166;10.864;2022-12-29T16:43:24;7.70;99.90
14962;DHT22;56489;53.166;10.864;2022-12-29T16:48:21;7.60;99.90
14962;DHT22;56489;53.166;10.864;2022-12-29T16:50:49;7.60;99.90
14962;DHT22;56489;53.166;10.864;2022-12-29T16:53:26;7.50;99.90
14962;DHT22;56489;53.166;10.864;2022-12-29T16:55:53;7.50;99.90
14962;DHT22;56489;53.166;10.864;2022-12-29T16:58:22;7.40;99.90
14962;DHT22;56489;53.166;10.864;2022-12-29T17:00:51;7.30;99.90
14962;DHT22;56489;53.166;10.864;2022-12-29T17:03:18;7.30;99.90
14962;DHT22;56489;53.166;10.864;2022-12-29T17:05:45;7.10;99.90
14962;DHT22;56489;53.166;10.864;2022-12-29T17:08:17;7.10;99.90
14962;DHT22;56489;53.166;10.864;2022-12-29T17:10:53;7.00;99.90
14962;DHT22;56489;53.166;10.864;2022-12-29T17:13:38;7.00;99.90
14962;DHT22;56489;53.166;10.864;2022-12-29T17:16:06;7.10;99.90
14962;DHT22;56489;53.166;10.864;2022-12-29T17:18:33;7.20;99.90
14962;DHT22;56489;53.166;10.864;2022-12-29T17:21:00;7.30;99.90
14962;DHT22;56489;53.166;10.864;2022-12-29T17:23:28;7.40;99.90
14962;DHT22;56489;53.166;10.864;2022-12-29T17:25:55;7.50;99.90
14962;DHT22;56489;53.166;10.864;2022-12-29T17:28:24;7.60;99.90
14962;DHT22;56489;53.166;10.864;2022-12-29T17:30:55;7.60;99.90
14962;DHT22;56489;53.166;10.864;2022-12-29T17:33:23;7.60;99.90
14962;DHT22;56489;53.166;10.864;2022-12-29T17:35:50;7.50;99.90
14962;DHT22;56489;53.166;10.864;2022-12-29T17:38:22;7.60;99.90
14962;DHT22;56489;53.166;10.864;2022-12-29T17:40:51;7.60;99.90
14962;DHT22;56489;53.166;10.864;2022-12-29T17:43:18;7.60;99.90